Time;durP1;ratioP1;P1;durP2;ratioP2;P2;SDS_P1;SDS_P2;PMS_P1;PMS_P2;Temp;Humidity;BMP_temperature;BMP_pressure;BME280_temperature;BME280_humidity;BME280_pressure;Samples;Min_cycle;Max_cycle;Signal;HPM_P1;HPM_P2
2023/03/05 05:26:51;;;;;;;4.97;2.25;;;;;;;1.45;71.56;99991.81;1668492;83;21244;-59
2023/03/05 05:33:54;;;;;;;4.25;1.70;;;;;;;-0.11;64.91;99668.77;1643414;86;21193;-58
2023/03/05 05:38:20;;;;;;;3.52;1.80;;;;;;;-0.06;64.82;99675.97;1608399;89;21411;-57
2023/03/05 05:45:26;;;;;;;6.47;1.80;;;;;;;0.02;64.74;99688.78;1682167;82;21354;-58
2023/03/05 05:48:44;;;;;;;4.97;2.20;;;;;;;0.08;64.71;99712.48;1714139;83;21196;-57
2023/03/05 05:52:08;;;;;;;6.17;1.80;;;;;;;0.12;64.61;99703.19;1714826;83;21196;-58
2023/03/05 05:55:38;;;;;;;2.45;1.72;;;;;;;0.14;64.52;99703.93;1714188;83;21192;-58
2023/03/05 05:59:12;;;;;;;3.75;1.70;;;;;;;0.18;64.55;99695.95;1707798;83;21208;-57
2023/03/05 06:02:56;;;;;;;3.67;1.65;;;;;;;0.26;64.50;99705.59;1689705;83;21244;-58
2023/03/05 06:06:27;;;;;;;6.28;2.90;;;;;;;0.35;64.41;99697.25;1830572;76;22242;-59
2023/03/05 06:10:01;;;;;;;6.50;3.20;;;;;;;0.32;64.37;99703.73;1774457;79;21185;-60
2023/03/05 06:13:24;;;;;;;6.20;3.20;;;;;;;0.36;64.34;99706.54;1772423;79;21216;-59
2023/03/05 06:16:47;;;;;;;5.92;2.62;;;;;;;0.41;64.31;99711.05;1773339;80;21193;-57
2023/03/05 06:20:46;;;;;;;19.73;9.28;;;;;;;0.43;64.24;99725.22;1773116;79;21191;-58
2023/03/05 06:24:25;;;;;;;10.13;4.87;;;;;;;0.46;64.23;99718.73;1771313;80;21313;-57
2023/03/05 06:27:50;;;;;;;7.72;3.33;;;;;;;0.49;64.10;99741.36;1773454;80;21205;-59
2023/03/05 06:31:21;;;;;;;4.45;2.30;;;;;;;0.49;64.07;99739.50;1764991;80;21194;-61
2023/03/05 06:34:39;;;;;;;4.40;2.45;;;;;;;0.54;64.06;99735.94;1736794;81;21180;-59
2023/03/05 06:38:14;;;;;;;7.20;2.87;;;;;;;0.62;64.12;99738.84;1756466;81;21205;-58
2023/03/05 06:41:50;;;;;;;7.37;2.85;;;;;;;0.69;64.01;99740.05;1762551;80;21393;-60
2023/03/05 06:45:14;;;;;;;8.95;3.95;;;;;;;0.74;63.87;99748.60;1749728;80;21182;-59
2023/03/05 06:48:52;;;;;;;15.08;7.17;;;;;;;0.75;63.84;99739.52;1754356;81;21178;-57
2023/03/05 06:52:26;;;;;;;8.78;3.87;;;;;;;0.87;63.86;99754.63;1758274;80;21707;-58
2023/03/05 06:56:01;;;;;;;6.10;2.70;;;;;;;1.01;63.77;99748.95;1756098;81;21161;-57
2023/03/05 06:59:25;;;;;;;6.60;3.35;;;;;;;1.05;63.63;99763.86;1751965;81;21165;-59
2023/03/05 07:02:55;;;;;;;17.85;7.05;;;;;;;1.10;63.49;99771.54;1762394;81;21186;-59
2023/03/05 07:06:15;;;;;;;13.72;6.35;;;;;;;1.12;63.45;99767.75;1739635;81;21365;-61
2023/03/05 07:09:43;;;;;;;13.95;6.92;;;;;;;1.15;63.37;99758.05;1744841;80;21655;-60
2023/03/05 07:13:11;;;;;;;7.08;3.17;;;;;;;1.23;63.32;99759.59;1751641;81;21702;-59
2023/03/05 07:16:50;;;;;;;6.42;2.92;;;;;;;1.32;63.26;99757.44;1752106;80;21742;-58
2023/03/05 07:20:09;;;;;;;8.50;4.10;;;;;;;1.40;63.24;99758.98;1749861;80;21245;-60
2023/03/05 07:23:27;;;;;;;25.45;10.93;;;;;;;1.63;63.36;99760.16;1755785;81;21761;-59
2023/03/05 07:26:47;;;;;;;11.75;6.03;;;;;;;1.66;63.16;99768.84;1761665;81;21217;-59
2023/03/05 07:30:22;;;;;;;9.58;5.10;;;;;;;1.69;63.07;99765.87;1758009;81;21729;-58
2023/03/05 07:33:58;;;;;;;11.53;6.55;;;;;;;1.77;63.07;99771.44;1765911;81;21355;-59
2023/03/05 07:37:38;;;;;;;9.30;5.80;;;;;;;1.74;62.89;99750.13;1759930;81;21335;-58
2023/03/05 07:41:11;;;;;;;8.15;3.45;;;;;;;1.65;62.83;99786.50;1748321;81;21359;-58
2023/03/05 07:44:29;;;;;;;6.62;3.33;;;;;;;1.48;62.68;99788.83;1768743;80;21269;-59
2023/03/05 07:47:46;;;;;;;6.35;2.87;;;;;;;1.30;62.62;99782.31;1762990;81;21682;-59
2023/03/05 07:51:16;;;;;;;5.25;3.33;;;;;;;1.22;62.59;99776.73;1831848;76;23061;-59
2023/03/05 07:54:41;;;;;;;6.08;4.47;;;;;;;1.12;62.57;99779.87;1767388;79;21193;-59
2023/03/05 07:58:17;;;;;;;5.85;2.77;;;;;;;1.10;62.66;99780.97;1742577;81;21742;-59
2023/03/05 08:01:47;;;;;;;6.20;2.98;;;;;;;1.16;62.75;99788.52;1731892;82;21469;-59
2023/03/05 08:05:06;;;;;;;8.98;4.33;;;;;;;1.25;62.81;99783.72;1732085;82;21730;-59
2023/03/05 08:08:35;;;;;;;4.70;2.72;;;;;;;1.44;62.90;99806.76;1732484;82;21758;-58
2023/03/05 08:11:59;;;;;;;5.78;3.00;;;;;;;1.59;62.83;99799.19;1732396;82;21702;-58
2023/03/05 08:15:28;;;;;;;6.55;3.20;;;;;;;1.72;62.75;99801.14;1731368;83;21729;-59
2023/03/05 08:19:08;;;;;;;8.48;3.22;;;;;;;1.90;62.77;99797.70;1710866;82;21745;-59
2023/03/05 08:22:21;;;;;;;7.22;3.65;;;;;;;2.14;62.65;99802.77;1730865;82;21193;-58
2023/03/05 08:25:47;;;;;;;5.70;2.15;;;;;;;2.31;62.62;99804.31;1732329;81;21805;-57
2023/03/05 08:29:29;;;;;;;8.20;4.45;;;;;;;2.58;62.58;99816.68;1756168;80;21238;-57
2023/03/05 08:32:41;;;;;;;6.05;2.72;;;;;;;2.74;62.33;99810.72;1777035;80;21245;-59
2023/03/05 08:36:01;;;;;;;3.87;2.30;;;;;;;2.83;62.21;99836.89;1720535;83;21223;-58
2023/03/05 08:39:46;;;;;;;7.17;3.77;;;;;;;2.86;62.02;99813.16;1720202;83;21231;-59
2023/03/05 08:43:31;;;;;;;7.53;3.60;;;;;;;2.94;61.96;99816.48;1710770;83;21366;-59
2023/03/05 08:47:05;;;;;;;5.75;3.27;;;;;;;2.97;61.79;99833.77;1744685;81;21235;-59
2023/03/05 08:50:22;;;;;;;21.62;11.85;;;;;;;3.06;61.79;99822.97;1722991;82;21388;-58
2023/03/05 08:54:02;;;;;;;6.72;4.05;;;;;;;3.16;61.71;99835.13;1712010;83;21617;-57
2023/03/05 08:57:24;;;;;;;12.50;8.98;;;;;;;3.24;61.70;99829.87;1714646;82;21228;-58
2023/03/05 09:00:49;;;;;;;4.85;3.10;;;;;;;3.29;61.56;99831.65;1701815;83;21378;-58
2023/03/05 09:04:24;;;;;;;4.35;2.90;;;;;;;3.43;61.57;99843.38;1701404;84;21365;-58
2023/03/05 09:07:34;;;;;;;4.37;2.45;;;;;;;3.46;61.31;99841.73;1679071;83;21280;-58
2023/03/05 09:10:55;;;;;;;3.47;2.20;;;;;;;3.46;61.29;99832.27;1689432;84;21996;-58
2023/03/05 09:14:07;;;;;;;8.53;3.85;;;;;;;3.49;61.21;99849.55;1676428;84;21215;-58
2023/03/05 09:17:32;;;;;;;7.12;4.92;;;;;;;3.47;61.07;99835.34;1641512;86;21273;-59
2023/03/05 09:20:58;;;;;;;5.92;3.62;;;;;;;3.51;61.06;99846.22;1668238;86;21252;-60
2023/03/05 09:24:19;;;;;;;4.80;3.08;;;;;;;3.47;60.92;99850.71;1645983;86;21289;-59
2023/03/05 09:27:46;;;;;;;8.28;4.05;;;;;;;3.44;60.88;99836.95;1707868;84;21374;-58
2023/03/05 09:31:02;;;;;;;12.00;5.55;;;;;;;3.53;60.94;99845.58;1692155;84;21286;-56
2023/03/05 09:34:21;;;;;;;4.92;3.02;;;;;;;3.62;60.89;99843.35;1659908;85;21828;-58
2023/03/05 09:37:39;;;;;;;5.87;3.58;;;;;;;3.73;60.91;99837.77;1692271;82;21229;-57
2023/03/05 09:41:25;;;;;;;4.67;2.80;;;;;;;3.74;60.71;99853.00;1672133;82;21280;-56
2023/03/05 09:45:16;;;;;;;9.78;3.98;;;;;;;3.77;60.67;99847.32;1678599;84;21728;-57
2023/03/05 09:48:34;;;;;;;3.98;2.30;;;;;;;3.72;60.57;99841.48;1676372;84;21271;-56
2023/03/05 09:51:51;;;;;;;4.75;2.47;;;;;;;3.73;60.52;99843.67;1678537;85;21636;-56
2023/03/05 09:55:09;;;;;;;2.90;2.27;;;;;;;3.76;60.46;99849.66;1678794;85;21243;-56
2023/03/05 09:58:44;;;;;;;5.25;2.95;;;;;;;3.89;60.43;99841.22;1681909;82;21662;-56
2023/03/05 10:02:09;;;;;;;5.85;3.98;;;;;;;3.92;60.27;99837.72;1721791;82;21300;-55
2023/03/05 10:05:38;;;;;;;6.10;3.83;;;;;;;3.87;60.17;99842.72;1715137;81;21745;-61
2023/03/05 10:09:51;;;;;;;7.50;3.72;;;;;;;3.88;60.10;99859.34;1699609;83;21415;-56
2023/03/05 10:13:22;;;;;;;6.25;3.45;;;;;;;3.80;59.94;99847.52;1717724;83;21191;-56
2023/03/05 10:17:04;;;;;;;8.55;4.92;;;;;;;3.69;59.87;99863.44;1720477;82;22107;-57
2023/03/05 10:20:49;;;;;;;8.00;5.75;;;;;;;3.61;59.97;99851.62;1751392;82;21379;-58
2023/03/05 10:24:24;;;;;;;6.97;4.70;;;;;;;3.56;59.89;99837.66;1706209;82;21303;-60
2023/03/05 10:27:55;;;;;;;7.72;4.28;;;;;;;3.63;60.04;99847.75;1700818;83;21215;-59
2023/03/05 10:31:44;;;;;;;6.40;4.05;;;;;;;3.57;59.79;99843.45;1722610;82;21335;-57
2023/03/05 10:35:40;;;;;;;8.43;6.05;;;;;;;3.56;59.83;99860.66;1737372;82;21963;-57
2023/03/05 10:39:29;;;;;;;5.20;4.50;;;;;;;3.61;59.76;99840.80;1746290;81;21875;-57
2023/03/05 10:43:00;;;;;;;5.80;4.70;;;;;;;3.71;59.92;99852.46;1744802;81;21208;-56
2023/03/05 10:46:32;;;;;;;6.30;5.00;;;;;;;3.78;59.85;99840.90;1745673;81;21405;-58
2023/03/05 10:49:45;;;;;;;6.50;5.10;;;;;;;3.73;59.71;99845.89;1745512;81;21895;-61
2023/03/05 10:53:14;;;;;;;5.75;4.60;;;;;;;3.69;59.63;99844.49;1731428;81;21403;-60
2023/03/05 10:56:22;;;;;;;6.37;4.80;;;;;;;3.68;59.54;99837.34;1715587;83;21215;-58
2023/03/05 10:59:54;;;;;;;8.28;4.00;;;;;;;3.82;59.53;99845.00;1694461;83;21235;-60
2023/03/05 11:03:41;;;;;;;5.85;4.00;;;;;;;3.85;59.41;99852.86;1741163;81;21764;-56
2023/03/05 11:07:39;;;;;;;7.15;4.25;;;;;;;3.87;59.43;99845.42;1646452;86;21267;-58
2023/03/05 11:11:23;;;;;;;6.03;4.40;;;;;;;4.02;59.39;99834.49;1727894;83;21765;-56
2023/03/05 11:15:27;;;;;;;5.97;4.35;;;;;;;4.05;59.37;99839.61;1717211;82;21276;-56
2023/03/05 11:19:21;;;;;;;9.38;6.30;;;;;;;4.11;59.32;99848.98;1733313;82;21224;-60
2023/03/05 11:22:34;;;;;;;7.37;4.90;;;;;;;4.07;59.13;99841.68;1714263;83;21265;-56
2023/03/05 11:26:10;;;;;;;7.15;5.30;;;;;;;4.06;59.12;99833.18;1695813;82;21232;-58
2023/03/05 11:29:45;;;;;;;5.40;4.60;;;;;;;4.16;59.07;99831.30;1676349;85;21229;-59
2023/03/05 11:33:23;;;;;;;11.65;4.35;;;;;;;4.31;59.13;99823.02;1677939;85;21246;-60
2023/03/05 11:37:05;;;;;;;7.28;3.75;;;;;;;4.53;59.07;99829.39;1721102;80;21205;-56
2023/03/05 11:40:38;;;;;;;8.23;3.67;;;;;;;4.53;58.75;99833.45;1755625;81;21405;-57
2023/03/05 11:43:56;;;;;;;6.10;4.67;;;;;;;4.35;58.55;99830.35;1728027;79;21253;-57
2023/03/05 11:47:26;;;;;;;5.40;3.62;;;;;;;4.30;58.62;99839.42;1684301;85;21240;-59
2023/03/05 11:50:51;;;;;;;8.93;3.98;;;;;;;4.32;58.72;99832.87;1714210;82;21217;-57
2023/03/05 11:54:21;;;;;;;4.62;2.85;;;;;;;4.42;58.73;99838.24;1695708;84;21225;-61
2023/03/05 11:57:37;;;;;;;6.97;3.57;;;;;;;4.45;58.70;99842.87;1672926;83;21459;-60
2023/03/05 12:00:52;;;;;;;4.75;2.30;;;;;;;4.35;58.45;99833.92;1729201;82;21224;-59
2023/03/05 12:04:23;;;;;;;4.65;3.12;;;;;;;4.26;58.37;99840.25;1704266;83;21300;-56
2023/03/05 12:07:50;;;;;;;5.55;3.22;;;;;;;4.13;58.24;99846.98;1704723;84;21260;-57
2023/03/05 12:11:13;;;;;;;7.78;4.67;;;;;;;4.06;58.26;99839.12;1731354;81;21758;-56
2023/03/05 12:14:54;;;;;;;5.50;2.25;;;;;;;4.12;58.46;99847.48;1731315;82;21877;-59
2023/03/05 12:18:28;;;;;;;9.58;6.03;;;;;;;4.15;58.31;99850.41;1715080;83;21236;-59
2023/03/05 12:22:07;;;;;;;7.45;4.05;;;;;;;4.00;58.06;99848.67;1732077;81;21745;-58
2023/03/05 12:25:58;;;;;;;4.00;2.10;;;;;;;3.98;58.23;99860.66;1721324;82;21344;-57
2023/03/05 12:30:08;;;;;;;5.35;2.00;;;;;;;4.07;58.26;99864.70;1732386;82;21367;-55
2023/03/05 12:33:58;;;;;;;3.87;2.08;;;;;;;4.06;58.14;99854.84;1733748;81;21258;-57
2023/03/05 12:37:30;;;;;;;3.30;2.00;;;;;;;4.13;58.12;99858.69;1732519;81;21705;-56
2023/03/05 12:40:51;;;;;;;4.08;2.00;;;;;;;4.04;57.95;99859.55;1733317;81;21579;-55
2023/03/05 12:44:22;;;;;;;5.42;2.12;;;;;;;3.96;57.93;99869.42;1717415;82;21220;-60
2023/03/05 12:47:40;;;;;;;4.65;2.70;;;;;;;3.92;57.84;99859.38;1881666;76;22179;-60
2023/03/05 12:51:06;;;;;;;5.12;2.90;;;;;;;3.83;57.86;99862.98;1791302;78;21777;-60
2023/03/05 12:54:42;;;;;;;4.58;2.60;;;;;;;3.87;58.00;99857.61;1766277;81;21177;-57
2023/03/05 12:57:56;;;;;;;10.55;5.17;;;;;;;4.12;58.20;99850.70;1765544;81;21402;-60
2023/03/05 13:01:53;;;;;;;5.37;2.85;;;;;;;4.20;58.05;99846.76;1750880;81;21919;-59
2023/03/05 13:05:16;;;;;;;4.37;2.52;;;;;;;4.20;57.91;99853.53;1735719;81;21299;-59
2023/03/05 13:08:42;;;;;;;5.53;3.30;;;;;;;4.23;57.89;99860.83;1766781;81;21200;-60
2023/03/05 13:12:19;;;;;;;5.40;2.33;;;;;;;4.18;57.72;99855.03;1765745;81;21837;-59
2023/03/05 13:15:54;;;;;;;3.58;1.62;;;;;;;4.15;57.59;99847.21;1765959;81;21456;-59
2023/03/05 13:19:30;;;;;;;4.30;1.87;;;;;;;4.07;57.45;99849.80;1746482;81;21243;-56
2023/03/05 13:22:45;;;;;;;10.60;2.60;;;;;;;4.08;57.49;99835.25;1743108;81;21292;-56
2023/03/05 13:26:29;;;;;;;4.10;2.30;;;;;;;4.05;57.39;99847.73;1790580;79;21753;-59
2023/03/05 13:29:48;;;;;;;6.15;2.00;;;;;;;4.03;57.48;99841.60;1800979;79;21213;-56
2023/03/05 13:33:29;;;;;;;4.00;2.27;;;;;;;4.04;57.40;99851.42;1804336;79;21264;-60
2023/03/05 13:36:49;;;;;;;5.75;2.20;;;;;;;3.96;57.26;99849.98;1804412;79;21276;-59
2023/03/05 13:40:16;;;;;;;6.10;2.33;;;;;;;3.90;57.18;99846.48;1845340;76;22765;-56
2023/03/05 13:43:39;;;;;;;4.70;2.12;;;;;;;3.83;57.19;99838.61;1765450;80;21236;-58
2023/03/05 13:46:57;;;;;;;4.03;1.67;;;;;;;3.80;57.18;99841.61;1709495;81;21917;-59
2023/03/05 13:50:14;;;;;;;;;;;;;;;3.77;57.10;99837.85;1708163;83;21232;-59
2023/03/05 13:54:09;;;;;;;4.42;2.30;;;;;;;3.75;57.07;99835.78;1868056;75;22281;-58
2023/03/05 13:57:49;;;;;;;3.45;1.85;;;;;;;3.67;57.05;99828.02;1801869;77;21933;-59
2023/03/05 14:01:18;;;;;;;2.52;1.80;;;;;;;3.74;57.18;99825.10;1796034;77;21194;-56
2023/03/05 14:04:34;;;;;;;3.83;2.30;;;;;;;3.81;56.98;99822.14;1765119;79;21239;-57
2023/03/05 14:07:59;;;;;;;3.20;1.72;;;;;;;3.69;56.81;99830.95;1746052;77;21213;-60
2023/03/05 14:11:33;;;;;;;4.33;2.25;;;;;;;3.54;56.74;99832.39;1803459;77;21452;-58
2023/03/05 14:15:01;;;;;;;3.25;2.00;;;;;;;3.50;56.83;99835.55;1801499;77;21259;-59
2023/03/05 14:18:39;;;;;;;4.63;2.53;;;;;;;3.57;56.95;99827.22;1801499;78;21212;-58
2023/03/05 14:22:19;;;;;;;5.78;3.30;;;;;;;3.62;57.00;99833.87;1794539;77;21208;-61
2023/03/05 14:25:46;;;;;;;2.30;1.90;;;;;;;3.52;56.88;99827.63;1802427;77;21677;-57
2023/03/05 14:29:29;;;;;;;5.72;2.35;;;;;;;3.52;56.92;99829.50;1784525;77;21279;-56
2023/03/05 14:32:57;;;;;;;3.47;2.10;;;;;;;3.56;56.94;99833.11;1804474;77;21211;-56
2023/03/05 14:36:28;;;;;;;3.08;2.10;;;;;;;3.53;56.81;99831.19;1778645;77;21214;-56
2023/03/05 14:39:53;;;;;;;6.35;2.70;;;;;;;3.51;56.83;99831.34;1783559;78;21855;-59
2023/03/05 14:43:10;;;;;;;6.28;2.85;;;;;;;3.54;56.86;99831.05;1781397;78;21843;-58
2023/03/05 14:46:30;;;;;;;4.55;2.65;;;;;;;3.57;56.84;99832.10;1801776;77;21705;-57
2023/03/05 14:50:30;;;;;;;4.50;2.42;;;;;;;3.53;56.78;99828.00;1800416;77;21203;-57
2023/03/05 14:54:08;;;;;;;3.70;2.02;;;;;;;3.45;56.68;99821.09;1738335;79;21764;-59
2023/03/05 14:57:25;;;;;;;5.05;1.98;;;;;;;3.36;56.63;99831.44;1715492;79;21290;-56
2023/03/05 15:00:48;;;;;;;5.47;2.75;;;;;;;3.26;56.61;99828.38;1709864;81;21737;-56
2023/03/05 15:04:07;;;;;;;11.15;5.12;;;;;;;3.22;56.62;99833.72;1839433;76;22720;-61
2023/03/05 15:07:35;;;;;;;9.28;4.42;;;;;;;3.13;56.66;99844.02;1799281;79;22091;-60
2023/03/05 15:19:17;;;;;;;23.70;11.95;;;;;;;2.96;56.58;99832.08;1804868;78;21189;-60
2023/03/05 15:22:59;;;;;;;12.80;6.67;;;;;;;2.89;56.53;99836.33;1794857;79;21225;-59
2023/03/05 15:26:47;;;;;;;14.47;7.10;;;;;;;2.82;56.51;99841.95;1770903;80;21221;-58
2023/03/05 15:30:19;;;;;;;10.08;5.65;;;;;;;2.76;56.52;99828.98;1770362;80;21205;-61
2023/03/05 15:33:54;;;;;;;8.60;5.17;;;;;;;2.68;56.47;99839.66;1793859;78;21193;-60
2023/03/05 15:37:24;;;;;;;7.72;4.37;;;;;;;2.55;56.52;99836.35;1803742;79;21186;-61
2023/03/05 15:40:43;;;;;;;5.20;3.52;;;;;;;2.47;56.53;99841.59;1779051;79;21849;-58
2023/03/05 15:44:00;;;;;;;10.60;3.40;;;;;;;2.40;56.54;99847.17;1765408;80;21301;-56
2023/03/05 15:47:20;;;;;;;12.65;5.22;;;;;;;2.31;56.52;99849.36;1804024;79;21177;-56
2023/03/05 15:50:42;;;;;;;11.22;5.58;;;;;;;2.21;56.51;99860.60;1794600;79;21978;-57
2023/03/05 15:53:57;;;;;;;12.05;6.55;;;;;;;2.11;56.47;99865.13;1802381;79;21177;-60
2023/03/05 15:57:21;;;;;;;14.33;4.70;;;;;;;2.00;56.46;99859.82;1783655;79;21912;-60
2023/03/05 16:00:46;;;;;;;7.25;4.47;;;;;;;1.88;56.44;99860.39;1793894;79;21190;-56
2023/03/05 16:04:11;;;;;;;11.45;6.47;;;;;;;1.80;56.49;99862.03;1763032;79;21212;-56
2023/03/05 16:07:41;;;;;;;28.70;16.17;;;;;;;1.77;56.52;99869.91;1772171;79;21820;-60
2023/03/05 16:11:21;;;;;;;58.17;29.65;;;;;;;1.72;56.57;99873.50;1749686;79;21384;-59
2023/03/05 16:14:46;;;;;;;44.10;23.73;;;;;;;1.70;56.62;99875.98;1781097;79;21869;-56
2023/03/05 16:18:03;;;;;;;19.50;10.85;;;;;;;1.71;56.69;99879.03;1786055;79;21207;-60
2023/03/05 16:21:39;;;;;;;22.00;12.00;;;;;;;1.73;56.72;99882.45;1797969;78;21197;-56
2023/03/05 16:24:56;;;;;;;36.83;20.20;;;;;;;1.77;56.68;99890.63;1778850;78;21713;-57
2023/03/05 16:28:17;;;;;;;50.78;25.43;;;;;;;1.82;56.71;99885.70;1771024;80;21312;-57
2023/03/05 16:31:44;;;;;;;65.87;36.53;;;;;;;1.88;56.66;99887.86;1705909;80;22057;-57
2023/03/05 16:35:04;;;;;;;57.62;31.65;;;;;;;1.93;56.60;99888.31;1736148;81;21209;-60
2023/03/05 16:38:44;;;;;;;103.32;57.27;;;;;;;1.98;56.58;99893.69;1727985;82;21201;-60
2023/03/05 16:42:25;;;;;;;91.80;50.00;;;;;;;2.02;56.54;99901.00;1683120;84;21808;-60
2023/03/05 16:45:53;;;;;;;54.88;30.80;;;;;;;2.05;56.49;99900.73;1668711;85;21343;-59
2023/03/05 16:49:19;;;;;;;45.45;25.15;;;;;;;2.07;56.45;99896.06;1702652;84;21256;-60
2023/03/05 16:53:02;;;;;;;35.05;20.30;;;;;;;2.07;56.42;99898.76;1676910;84;21637;-60
2023/03/05 16:56:23;;;;;;;33.95;19.05;;;;;;;2.04;56.38;99900.38;1677745;84;21400;-57
2023/03/05 16:59:47;;;;;;;30.25;17.50;;;;;;;1.96;56.32;99892.09;1691094;82;21282;-56
2023/03/05 17:03:06;;;;;;;24.55;12.80;;;;;;;1.87;56.24;99892.39;1700781;83;21682;-61
2023/03/05 17:06:33;;;;;;;20.92;9.10;;;;;;;1.78;56.21;99896.38;1677811;84;21243;-58
2023/03/05 17:09:55;;;;;;;19.70;8.95;;;;;;;1.70;56.18;99888.13;1676307;84;21760;-58
2023/03/05 17:13:27;;;;;;;24.37;13.72;;;;;;;1.63;56.22;99880.18;1677615;85;21722;-61
2023/03/05 17:16:40;;;;;;;32.93;17.05;;;;;;;1.58;56.26;99876.53;1677946;85;21231;-57
2023/03/05 17:20:01;;;;;;;35.52;21.48;;;;;;;1.53;56.29;99877.42;1677168;84;21326;-57
2023/03/05 17:23:11;;;;;;;;;;;;;;;1.51;56.30;99881.59;1680677;84;21247;-57
2023/03/05 17:26:41;;;;;;;40.78;23.18;;;;;;;1.51;56.30;99878.89;1675718;84;20251;-57
2023/03/05 17:29:57;;;;;;;45.80;24.60;;;;;;;1.52;56.33;99881.11;1677670;85;21389;-57
2023/03/05 17:33:22;;;;;;;41.68;24.35;;;;;;;1.54;56.34;99877.28;1677821;84;21361;-61
2023/03/05 17:36:50;;;;;;;38.50;23.55;;;;;;;1.55;56.32;99873.59;1678607;84;21235;-56
2023/03/05 17:40:20;;;;;;;36.58;23.73;;;;;;;1.59;56.28;99876.05;1677075;85;21361;-61
2023/03/05 17:44:04;;;;;;;44.98;28.52;;;;;;;1.57;56.25;99872.10;1665034;85;21235;-60
2023/03/05 17:47:37;;;;;;;37.83;22.37;;;;;;;1.58;56.27;99868.92;1675079;85;21231;-56
2023/03/05 17:50:45;;;;;;;33.48;20.30;;;;;;;1.57;56.28;99869.41;1676591;84;21211;-56
2023/03/05 17:54:13;;;;;;;29.00;18.23;;;;;;;1.58;56.32;99873.84;1676134;85;21201;-59
2023/03/05 17:57:49;;;;;;;31.20;17.40;;;;;;;1.56;56.33;99877.16;1674096;84;21257;-60
2023/03/05 18:01:06;;;;;;;30.88;18.25;;;;;;;1.51;56.33;99875.33;1708336;84;21366;-61
2023/03/05 18:04:32;;;;;;;32.88;20.97;;;;;;;1.46;56.30;99881.13;1708450;84;21383;-57
2023/03/05 18:07:53;;;;;;;30.32;18.42;;;;;;;1.39;56.21;99880.44;1708356;84;21217;-57
2023/03/05 18:11:11;;;;;;;29.10;18.30;;;;;;;1.33;56.25;99880.97;1667295;84;21217;-60
2023/03/05 18:14:29;;;;;;;28.95;16.95;;;;;;;1.28;56.29;99888.10;1693352;83;21228;-57
2023/03/05 18:17:53;;;;;;;23.18;15.32;;;;;;;1.24;56.34;99883.94;1689949;83;21403;-61
2023/03/05 18:21:32;;;;;;;31.40;17.92;;;;;;;1.25;56.35;99891.02;1688848;84;21356;-57
2023/03/05 18:25:08;;;;;;;33.42;18.65;;;;;;;1.25;56.36;99890.19;1684483;84;21225;-57
2023/03/05 18:28:27;;;;;;;29.45;16.30;;;;;;;1.25;56.37;99888.33;1676273;83;21343;-57
2023/03/05 18:31:31;;;;;;;24.85;15.30;;;;;;;1.26;56.36;99886.50;1657370;85;21251;-58
2023/03/05 18:35:02;;;;;;;24.20;13.75;;;;;;;1.25;56.32;99882.11;1683121;84;21458;-58
2023/03/05 18:38:38;;;;;;;22.30;13.13;;;;;;;1.22;56.34;99885.06;1678719;84;21199;-57
2023/03/05 18:41:55;;;;;;;24.60;14.05;;;;;;;1.18;56.38;99889.85;1696529;80;21228;-61
2023/03/05 18:45:31;;;;;;;29.12;15.40;;;;;;;1.16;56.43;99883.72;1739295;80;21239;-60
2023/03/05 18:49:03;;;;;;;78.30;45.50;;;;;;;1.14;56.44;99888.38;1716958;82;21153;-58
2023/03/05 18:52:45;;;;;;;61.92;34.18;;;;;;;1.15;56.46;99888.77;1736397;82;21332;-59
2023/03/05 18:56:34;;;;;;;64.30;40.60;;;;;;;1.17;56.46;99885.42;1715358;82;21257;-61
2023/03/05 19:00:08;;;;;;;64.87;36.05;;;;;;;1.18;56.37;99886.28;1736518;82;21220;-61
2023/03/05 19:03:50;;;;;;;34.98;18.92;;;;;;;1.20;56.47;99889.23;1737589;82;21193;-58
2023/03/05 19:07:07;;;;;;;30.90;16.23;;;;;;;1.25;56.58;99891.02;1737228;82;21363;-58
2023/03/05 19:10:50;;;;;;;26.37;14.18;;;;;;;1.31;56.61;99891.02;1719301;82;21460;-60
2023/03/05 19:14:22;;;;;;;29.77;15.70;;;;;;;1.34;56.62;99892.09;1726255;82;21505;-60
2023/03/05 19:17:48;;;;;;;;;;;;;;;1.37;56.56;99893.19;1738194;82;21467;-57
2023/03/05 19:21:07;;;;;;;27.80;14.55;;;;;;;1.38;56.52;99894.41;1736391;82;20198;-60
2023/03/05 19:24:29;;;;;;;28.52;14.95;;;;;;;1.42;56.51;99887.78;1875501;76;22183;-58
2023/03/05 19:42:25;;;;;;;17.20;8.45;;;;;;;1.49;56.62;99893.52;1858573;76;22180;-59
2023/03/05 19:45:52;;;;;;;12.50;8.20;;;;;;;1.44;56.65;99883.09;1737516;81;21305;-57
2023/03/05 19:49:17;;;;;;;15.20;8.58;;;;;;;1.48;56.69;99887.25;1763866;80;21370;-57
2023/03/05 19:52:40;;;;;;;15.88;9.25;;;;;;;1.58;56.67;99882.41;1858852;76;22223;-59
2023/03/05 19:56:11;;;;;;;21.90;10.70;;;;;;;1.52;56.68;99884.64;1738120;81;21347;-59
2023/03/05 20:00:08;;;;;;;48.68;18.00;;;;;;;1.55;56.68;99878.98;1770657;80;21429;-62
2023/03/05 20:03:36;;;;;;;90.50;39.15;;;;;;;1.63;56.71;99872.09;1858635;76;22203;-59
2023/03/05 20:06:56;;;;;;;75.32;38.05;;;;;;;1.67;56.74;99873.52;1858450;76;22767;-60
2023/03/05 20:10:09;;;;;;;81.25;40.40;;;;;;;1.63;56.75;99881.53;1737156;82;21216;-60
2023/03/05 20:13:33;;;;;;;81.85;37.40;;;;;;;1.69;56.71;99869.72;1858428;76;22710;-59
2023/03/05 20:16:53;;;;;;;83.42;34.10;;;;;;;1.63;56.70;99874.30;1706974;83;21251;-58
2023/03/05 20:20:21;;;;;;;74.90;31.73;;;;;;;1.65;56.74;99868.77;1714690;82;21431;-58
2023/03/05 20:24:11;;;;;;;37.75;19.40;;;;;;;1.66;56.81;99865.94;1707561;84;21153;-58
2023/03/05 20:27:43;;;;;;;26.73;13.43;;;;;;;1.67;56.82;99862.73;1708452;82;21204;-59
2023/03/05 20:31:04;;;;;;;21.25;11.15;;;;;;;1.66;56.81;99865.94;1697095;81;21227;-58
2023/03/05 20:34:25;;;;;;;21.62;11.50;;;;;;;1.67;56.88;99860.89;1672068;84;21772;-57
2023/03/05 20:38:25;;;;;;;17.75;10.40;;;;;;;1.69;56.91;99862.98;1672472;84;21172;-59
2023/03/05 20:41:59;;;;;;;36.68;20.65;;;;;;;1.72;56.91;99854.61;1669942;84;21239;-59
2023/03/05 20:45:20;;;;;;;28.90;16.42;;;;;;;1.79;57.01;99858.98;1856736;76;22292;-59
2023/03/05 20:48:48;;;;;;;28.38;15.30;;;;;;;1.74;57.04;99854.48;1762848;79;21146;-60
2023/03/05 20:52:21;;;;;;;30.88;12.63;;;;;;;1.75;57.02;99853.48;1802246;79;21464;-58
2023/03/05 20:56:07;;;;;;;37.98;18.32;;;;;;;1.77;56.89;99854.20;1826063;75;22375;-59
2023/03/05 20:59:40;;;;;;;42.65;17.85;;;;;;;1.70;56.86;99849.00;1788965;76;21374;-61
2023/03/05 21:03:06;;;;;;;35.13;15.43;;;;;;;1.67;56.84;99851.94;1743374;81;21185;-58
2023/03/05 21:06:26;;;;;;;23.83;11.75;;;;;;;1.65;56.87;99845.84;1741639;78;21225;-58
2023/03/05 21:09:44;;;;;;;16.73;8.83;;;;;;;1.65;56.98;99839.10;1772363;77;21217;-58
2023/03/05 21:13:38;;;;;;;31.02;12.03;;;;;;;1.65;57.06;99842.63;1755725;77;21239;-58
2023/03/05 21:16:51;;;;;;;27.17;12.15;;;;;;;1.64;57.06;99834.67;1775568;77;21235;-58
2023/03/05 21:20:12;;;;;;;17.90;10.15;;;;;;;1.62;57.05;99838.02;1752320;78;21284;-58
2023/03/05 21:23:27;;;;;;;16.93;9.60;;;;;;;1.56;56.92;99829.95;1761316;77;21224;-58
2023/03/05 21:26:52;;;;;;;18.42;9.83;;;;;;;1.52;56.95;99828.01;1741458;77;21244;-60
2023/03/05 21:30:14;;;;;;;38.90;20.90;;;;;;;1.52;56.97;99822.61;1844386;76;22701;-58
2023/03/05 21:33:30;;;;;;;22.05;11.60;;;;;;;1.40;56.98;99823.69;1748446;80;21406;-57
2023/03/05 21:36:51;;;;;;;19.42;9.65;;;;;;;1.34;57.11;99819.31;1774223;80;21180;-57
2023/03/05 21:40:06;;;;;;;19.90;10.03;;;;;;;1.24;57.21;99819.23;1772211;79;21177;-58
2023/03/05 21:43:26;;;;;;;18.12;9.65;;;;;;;1.13;57.29;99819.78;1760754;81;21181;-58
2023/03/05 21:46:47;;;;;;;21.17;9.60;;;;;;;1.06;57.37;99823.48;1747291;80;21178;-57
2023/03/05 21:50:46;;;;;;;18.48;9.60;;;;;;;0.97;57.36;99825.63;1764185;79;21174;-58
2023/03/05 21:54:20;;;;;;;17.73;9.18;;;;;;;0.88;57.35;99828.23;1772325;80;21177;-61
2023/03/05 21:57:55;;;;;;;20.50;10.10;;;;;;;0.77;57.36;99832.31;1773087;81;21540;-60
2023/03/05 22:01:29;;;;;;;28.23;12.20;;;;;;;0.66;57.40;99827.83;1771560;79;21244;-60
2023/03/05 22:05:15;;;;;;;18.48;9.95;;;;;;;0.57;57.42;99833.13;1769801;79;21205;-59
2023/03/05 22:08:46;;;;;;;21.48;10.98;;;;;;;0.47;57.54;99830.33;1773600;80;21217;-59
2023/03/05 22:12:52;;;;;;;;;;;;;;;;;;;;;
2023/03/05 22:16:03;;;;;;;25.02;11.48;;;;;;;0.34;57.78;99830.96;1754772;80;21885;-59
2023/03/05 22:19:37;;;;;;;25.02;12.75;;;;;;;0.30;57.87;99824.13;1774447;79;21829;-58
2023/03/05 22:23:04;;;;;;;28.07;12.30;;;;;;;0.28;57.89;99831.95;1771556;80;21327;-59
2023/03/05 22:26:49;;;;;;;26.50;11.80;;;;;;;0.23;57.90;99830.12;1771662;79;21312;-57